Time;durP1;ratioP1;P1;durP2;ratioP2;P2;SDS_P1;SDS_P2;PMS_P1;PMS_P2;Temp;Humidity;BMP_temperature;BMP_pressure;BME280_temperature;BME280_humidity;BME280_pressure;Samples;Min_cycle;Max_cycle;Signal;HPM_P1;HPM_P2
2020/12/05 00:01:09;;;;;;;30.23;17.53;;;;;;;5.20;68.18;99176.75;124600;1097;104518;-72
2020/12/05 00:03:37;;;;;;;28.57;17.30;;;;;;;5.21;68.42;99174.92;124509;1095;104911;-72
2020/12/05 00:06:05;;;;;;;35.17;20.97;;;;;;;5.20;68.31;99176.75;124589;1095;104561;-72
2020/12/05 00:08:35;;;;;;;29.03;17.17;;;;;;;5.22;68.27;99177.43;124549;1095;104523;-72
2020/12/05 00:11:03;;;;;;;33.10;19.97;;;;;;;5.21;68.50;99170.46;124638;1095;104599;-73
2020/12/05 00:13:31;;;;;;;31.50;19.17;;;;;;;5.22;68.27;99181.90;124506;1095;104736;-71
2020/12/05 00:16:00;;;;;;;28.00;14.63;;;;;;;5.17;68.47;99161.16;124572;1095;104582;-71
2020/12/05 00:18:28;;;;;;;25.23;13.57;;;;;;;5.14;68.28;99163.25;124582;1097;104512;-71
2020/12/05 00:20:56;;;;;;;27.80;15.37;;;;;;;5.10;68.21;99175.96;124618;1095;104535;-71
2020/12/05 00:23:24;;;;;;;24.47;14.33;;;;;;;5.11;68.51;99183.72;124616;1095;104621;-71
2020/12/05 00:25:53;;;;;;;24.93;14.53;;;;;;;5.11;68.45;99186.36;124532;1095;104685;-71
2020/12/05 00:28:21;;;;;;;24.15;11.95;;;;;;;5.14;68.62;99179.13;124541;1095;104512;-74
2020/12/05 00:30:49;;;;;;;22.15;13.45;;;;;;;5.16;68.35;99175.38;124588;1095;104931;-72
2020/12/05 00:33:18;;;;;;;25.03;14.83;;;;;;;5.16;68.19;99180.66;124605;1095;104591;-73
2020/12/05 00:35:46;;;;;;;28.97;16.80;;;;;;;5.18;68.74;99177.87;124467;1095;104714;-72
2020/12/05 00:38:14;;;;;;;27.17;15.90;;;;;;;5.17;68.39;99194.71;124488;1095;104516;-70
2020/12/05 00:40:42;;;;;;;26.45;15.45;;;;;;;5.15;68.39;99204.59;124514;1095;104580;-70
2020/12/05 00:43:11;;;;;;;22.00;12.83;;;;;;;5.14;68.38;99201.13;124511;1095;104644;-72
2020/12/05 00:45:39;;;;;;;25.80;13.73;;;;;;;5.13;68.38;99199.45;124598;1095;104518;-72
2020/12/05 00:48:08;;;;;;;23.95;13.35;;;;;;;5.16;68.43;99195.67;124562;1095;104729;-72
2020/12/05 00:50:36;;;;;;;25.47;15.20;;;;;;;5.16;68.39;99198.31;124503;1095;104609;-72
2020/12/05 00:53:05;;;;;;;26.87;15.20;;;;;;;5.18;68.37;99201.68;124642;1095;104970;-72
2020/12/05 00:55:33;;;;;;;24.13;14.10;;;;;;;5.18;68.13;99196.39;124372;1097;104576;-72
2020/12/05 00:58:01;;;;;;;23.97;13.53;;;;;;;5.19;68.17;99198.04;124597;1095;104496;-75
2020/12/05 01:00:30;;;;;;;25.87;15.13;;;;;;;5.18;68.53;99202.51;124615;1095;104497;-72
2020/12/05 01:02:58;;;;;;;22.85;14.30;;;;;;;5.17;68.17;99202.64;124651;1095;105054;-71
2020/12/05 01:05:26;;;;;;;24.40;13.67;;;;;;;5.14;68.50;99194.98;124561;1095;104554;-71
2020/12/05 01:07:55;;;;;;;23.03;14.33;;;;;;;5.16;68.50;99204.46;124576;1095;104612;-73
2020/12/05 01:10:24;;;;;;;26.70;16.00;;;;;;;5.17;68.37;99194.71;124461;1095;104506;-73
2020/12/05 01:12:52;;;;;;;26.77;16.30;;;;;;;5.20;68.34;99200.55;124624;1095;104685;-74
2020/12/05 01:15:21;;;;;;;31.07;18.30;;;;;;;5.23;68.50;99194.13;124577;1095;104548;-71
2020/12/05 01:17:49;;;;;;;43.90;25.50;;;;;;;5.25;68.56;99193.02;124555;1095;104650;-74
2020/12/05 01:20:17;;;;;;;39.13;21.30;;;;;;;5.28;68.12;99187.42;124578;1095;104576;-72
2020/12/05 01:22:45;;;;;;;35.20;19.70;;;;;;;5.27;68.52;99190.20;124640;1095;104667;-71
2020/12/05 01:25:14;;;;;;;31.93;19.13;;;;;;;5.27;68.20;99182.27;124594;1095;104583;-74
2020/12/05 01:27:43;;;;;;;39.20;22.77;;;;;;;5.26;68.49;99183.27;124590;1095;104599;-72
2020/12/05 01:30:12;;;;;;;26.33;15.33;;;;;;;5.25;68.21;99181.59;124619;1097;104653;-73
2020/12/05 01:32:40;;;;;;;26.03;15.10;;;;;;;5.24;68.80;99175.47;124576;1095;104775;-73
2020/12/05 01:35:08;;;;;;;30.00;17.77;;;;;;;5.26;68.42;99172.69;124597;1095;104594;-71
2020/12/05 01:37:37;;;;;;;33.00;19.95;;;;;;;5.25;68.88;99166.58;124578;1095;104711;-72
2020/12/05 01:40:05;;;;;;;27.23;16.13;;;;;;;5.27;68.80;99171.70;124611;1095;104571;-72
2020/12/05 01:42:33;;;;;;;27.93;16.17;;;;;;;5.28;68.66;99176.84;124624;1095;104603;-73
2020/12/05 01:45:01;;;;;;;31.60;18.35;;;;;;;5.28;68.43;99170.73;124622;1095;104599;-73
2020/12/05 01:47:30;;;;;;;31.23;17.53;;;;;;;5.29;68.62;99177.67;124578;1095;104525;-74
2020/12/05 01:49:59;;;;;;;29.00;15.70;;;;;;;5.28;68.89;99176.02;124638;1095;104512;-72
2020/12/05 01:52:28;;;;;;;29.20;16.40;;;;;;;5.28;68.50;99170.73;124678;1095;104568;-72
2020/12/05 01:54:56;;;;;;;28.63;15.97;;;;;;;5.31;68.38;99176.56;124614;1095;104615;-72
2020/12/05 01:57:25;;;;;;;134.03;74.87;;;;;;;5.33;68.59;99168.46;124468;1095;104593;-73
2020/12/05 01:59:53;;;;;;;187.37;84.13;;;;;;;5.34;68.25;99162.20;124238;1096;104608;-73
2020/12/05 02:02:21;;;;;;;282.77;122.83;;;;;;;5.35;68.37;99160.39;124547;1095;104683;-74
2020/12/05 02:05:03;;;;;;;388.43;192.53;;;;;;;5.38;68.62;99166.22;124540;1097;104506;-71
2020/12/05 02:07:38;;;;;;;176.40;65.30;;;;;;;5.38;68.84;99166.22;124621;1095;104938;-73
2020/12/05 02:10:14;;;;;;;293.80;122.33;;;;;;;5.38;68.44;99165.39;124636;1097;104513;-72
2020/12/05 02:12:50;;;;;;;148.30;58.40;;;;;;;5.39;68.65;99159.11;124615;1095;104711;-72
2020/12/05 02:15:25;;;;;;;169.93;72.60;;;;;;;5.41;68.37;99152.71;124520;1095;104637;-72
2020/12/05 02:18:00;;;;;;;315.17;149.87;;;;;;;5.43;68.91;99140.17;124633;1095;104554;-72
2020/12/05 02:20:30;;;;;;;250.10;108.27;;;;;;;5.48;68.30;99150.30;124726;1095;104602;-73
2020/12/05 02:23:05;;;;;;;292.00;145.07;;;;;;;5.49;69.10;99146.69;124668;1095;104702;-73
2020/12/05 02:25:34;;;;;;;110.50;51.53;;;;;;;5.51;68.95;99140.25;124568;1095;104593;-71
2020/12/05 02:28:07;;;;;;;171.80;80.60;;;;;;;5.53;68.90;99136.64;124489;1095;104516;-72
2020/12/05 02:30:35;;;;;;;94.00;44.75;;;;;;;5.56;68.40;99133.68;124575;1095;104605;-72
2020/12/05 02:33:05;;;;;;;192.40;98.15;;;;;;;5.60;68.57;99132.40;124609;1095;104660;-73
2020/12/05 02:35:34;;;;;;;84.67;40.87;;;;;;;5.64;68.96;99139.05;124539;1095;104593;-73
2020/12/05 02:38:10;;;;;;;116.33;61.80;;;;;;;5.68;68.45;99143.09;124596;1095;104490;-73
2020/12/05 02:40:38;;;;;;;101.37;53.60;;;;;;;5.70;68.17;99149.07;124580;1095;104976;-71
2020/12/05 02:43:07;;;;;;;116.15;59.20;;;;;;;5.74;68.75;99139.02;124640;1095;104609;-73
2020/12/05 02:45:37;;;;;;;80.33;40.37;;;;;;;5.77;68.18;99150.11;124563;1095;104897;-72
2020/12/05 02:48:05;;;;;;;93.80;49.80;;;;;;;5.79;68.05;99148.15;124569;1095;104570;-72
2020/12/05 02:50:33;;;;;;;140.67;68.50;;;;;;;5.82;68.57;99153.16;124533;1095;104590;-72
2020/12/05 02:53:02;;;;;;;90.67;45.17;;;;;;;5.86;68.58;99161.64;124627;1097;104643;-73
2020/12/05 02:55:30;;;;;;;106.80;49.97;;;;;;;5.89;68.41;99156.05;124604;1095;104537;-72
2020/12/05 02:57:58;;;;;;;190.73;89.73;;;;;;;5.91;69.03;99151.44;124597;1095;104573;-72
2020/12/05 03:00:27;;;;;;;176.55;83.70;;;;;;;5.93;69.05;99154.77;124550;1095;104570;-71
2020/12/05 03:02:55;;;;;;;307.10;160.10;;;;;;;5.92;68.68;99163.67;124496;1095;104625;-74
2020/12/05 03:05:23;;;;;;;172.43;81.90;;;;;;;5.92;68.05;99152.27;124625;1096;104560;-73
2020/12/05 03:07:52;;;;;;;88.57;42.20;;;;;;;5.94;68.66;99160.89;124457;1095;104596;-71
2020/12/05 03:10:20;;;;;;;140.50;71.63;;;;;;;5.97;68.54;99168.58;124569;1095;104577;-72
2020/12/05 03:12:48;;;;;;;124.40;63.43;;;;;;;5.99;69.13;99153.37;124529;1095;104660;-71
2020/12/05 03:15:17;;;;;;;190.10;92.07;;;;;;;6.02;68.46;99171.58;124503;1095;104560;-71
2020/12/05 03:17:45;;;;;;;92.97;43.43;;;;;;;6.04;69.11;99153.73;124580;1095;104630;-72
2020/12/05 03:20:13;;;;;;;112.47;60.50;;;;;;;6.05;69.12;99160.70;124654;1095;104599;-72
2020/12/05 03:22:42;;;;;;;115.23;66.03;;;;;;;6.06;68.71;99151.75;124634;1097;104590;-74
2020/12/05 03:25:10;;;;;;;66.90;36.40;;;;;;;6.06;68.99;99155.26;124604;1095;104647;-71
2020/12/05 03:27:38;;;;;;;72.97;37.80;;;;;;;6.07;69.08;99164.85;124535;1095;104535;-71
2020/12/05 03:30:06;;;;;;;61.67;34.43;;;;;;;6.08;69.01;99163.03;124618;1095;104548;-71
2020/12/05 03:32:35;;;;;;;47.83;27.33;;;;;;;6.12;68.42;99175.02;124495;1095;104650;-74
2020/12/05 03:35:03;;;;;;;48.07;26.17;;;;;;;6.11;68.62;99173.33;124597;1095;104519;-73
2020/12/05 03:37:32;;;;;;;34.60;19.35;;;;;;;6.09;68.47;99173.48;124612;1095;104593;-72
2020/12/05 03:40:00;;;;;;;59.17;32.80;;;;;;;6.12;68.90;99168.86;124640;1095;104599;-75
2020/12/05 03:42:29;;;;;;;80.70;46.03;;;;;;;6.14;69.06;99166.89;124702;1095;104672;-72
2020/12/05 03:44:57;;;;;;;108.77;61.67;;;;;;;6.15;68.62;99157.97;124582;1095;104517;-74
2020/12/05 03:47:26;;;;;;;249.73;144.23;;;;;;;6.16;69.14;99155.18;124583;1095;104523;-72
2020/12/05 03:49:54;;;;;;;288.70;171.80;;;;;;;6.18;68.49;99158.51;124624;1095;104583;-73
2020/12/05 03:52:22;;;;;;;120.37;69.43;;;;;;;6.19;68.83;99149.56;124548;1096;104696;-73
2020/12/05 03:54:50;;;;;;;109.83;64.60;;;;;;;6.20;68.99;99145.94;124640;1095;105063;-72
2020/12/05 03:57:19;;;;;;;72.15;43.90;;;;;;;6.20;69.02;99155.71;124627;1095;104574;-73
2020/12/05 03:59:47;;;;;;;115.57;72.73;;;;;;;6.20;68.42;99151.23;124638;1095;104596;-73
2020/12/05 04:02:16;;;;;;;82.20;48.87;;;;;;;6.20;68.33;99156.53;124647;1095;104750;-72
2020/12/05 04:04:44;;;;;;;58.77;33.13;;;;;;;6.21;69.06;99147.59;124596;1095;104579;-71
2020/12/05 04:07:12;;;;;;;55.53;34.23;;;;;;;6.22;68.45;99159.04;124562;1095;104940;-72
2020/12/05 04:09:40;;;;;;;70.40;42.93;;;;;;;6.24;67.76;99151.77;124602;1095;104574;-72
2020/12/05 04:12:09;;;;;;;46.80;27.07;;;;;;;6.24;67.81;99163.19;124645;1095;104599;-73
2020/12/05 04:14:37;;;;;;;77.30;46.23;;;;;;;6.25;68.26;99156.89;124464;1095;104599;-71
2020/12/05 04:17:06;;;;;;;83.30;50.00;;;;;;;6.25;68.83;99164.02;124438;1095;104525;-71
2020/12/05 04:19:34;;;;;;;63.27;39.13;;;;;;;6.24;68.32;99157.89;124658;1095;104567;-72
2020/12/05 04:22:03;;;;;;;47.37;30.43;;;;;;;6.26;67.85;99155.92;124802;1095;104630;-72
2020/12/05 04:24:31;;;;;;;55.00;34.33;;;;;;;6.27;68.19;99157.59;124627;1095;104715;-73
2020/12/05 04:26:59;;;;;;;40.43;25.30;;;;;;;6.29;68.71;99150.33;124578;1095;104490;-72
2020/12/05 04:29:27;;;;;;;47.05;30.40;;;;;;;6.29;68.23;99155.63;124595;1095;104987;-74
2020/12/05 04:31:56;;;;;;;38.57;25.67;;;;;;;6.32;67.80;99158.95;124631;1095;104666;-72
2020/12/05 04:34:24;;;;;;;33.93;20.67;;;;;;;6.32;68.22;99159.78;124583;1095;104577;-72
2020/12/05 04:36:52;;;;;;;29.85;20.15;;;;;;;6.34;68.75;99162.28;124560;1095;104551;-71
2020/12/05 04:39:20;;;;;;;26.97;19.30;;;;;;;6.36;68.19;99155.02;124480;1096;104593;-72
2020/12/05 04:41:49;;;;;;;50.67;38.70;;;;;;;6.37;68.79;99154.87;124610;1095;104589;-74
2020/12/05 04:44:17;;;;;;;125.30;81.80;;;;;;;6.37;68.41;99160.16;124500;1095;104670;-73
2020/12/05 04:46:46;;;;;;;77.80;44.57;;;;;;;6.38;68.79;99153.86;124478;1095;104570;-73
2020/12/05 04:49:17;;;;;;;140.60;83.60;;;;;;;6.38;68.21;99153.04;124470;1095;104525;-73
2020/12/05 04:51:57;;;;;;;52.65;30.00;;;;;;;6.37;68.21;99148.71;124679;1095;104662;-71
2020/12/05 04:54:28;;;;;;;79.20;50.00;;;;;;;6.39;68.64;99154.69;124464;1095;104654;-73
2020/12/05 04:56:56;;;;;;;41.97;25.67;;;;;;;6.38;68.40;99153.86;124638;1097;104487;-72
2020/12/05 04:59:25;;;;;;;41.13;25.10;;;;;;;6.40;68.60;99156.37;124574;1095;104513;-71
2020/12/05 05:01:58;;;;;;;38.13;22.77;;;;;;;6.41;68.72;99147.41;124618;1095;104682;-72
2020/12/05 05:04:27;;;;;;;62.27;37.67;;;;;;;6.42;68.03;99159.69;124617;1095;104637;-73
2020/12/05 05:07:05;;;;;;;55.37;35.30;;;;;;;6.41;68.10;99158.88;124610;1095;104491;-74
2020/12/05 05:09:33;;;;;;;34.27;20.60;;;;;;;6.43;68.08;99156.07;124634;1095;104548;-72
2020/12/05 05:12:01;;;;;;;30.33;18.90;;;;;;;6.44;67.82;99165.67;124633;1095;104631;-72
2020/12/05 05:14:35;;;;;;;27.43;16.90;;;;;;;6.47;67.60;99157.42;124637;1095;104571;-72
2020/12/05 05:17:07;;;;;;;35.37;21.17;;;;;;;6.50;67.75;99159.75;124580;1095;104599;-74
2020/12/05 05:19:36;;;;;;;40.00;23.50;;;;;;;6.51;68.03;99173.86;124605;1095;104618;-72
2020/12/05 05:22:05;;;;;;;29.63;18.63;;;;;;;6.51;68.22;99173.86;124644;1095;104638;-73
2020/12/05 05:24:34;;;;;;;24.37;15.30;;;;;;;6.51;68.12;99166.73;124655;1095;104600;-74
2020/12/05 05:27:04;;;;;;;24.90;16.40;;;;;;;6.53;68.70;99178.00;124511;1095;104529;-72
2020/12/05 05:29:35;;;;;;;30.43;20.90;;;;;;;6.56;67.77;99180.33;124592;1095;104599;-73
2020/12/05 05:32:08;;;;;;;30.20;19.00;;;;;;;6.58;68.61;99180.18;124646;1095;104622;-73
2020/12/05 05:34:37;;;;;;;26.53;18.17;;;;;;;6.59;67.68;99177.38;124604;1095;104554;-74
2020/12/05 05:37:15;;;;;;;27.90;19.33;;;;;;;6.60;68.59;99181.71;124561;1097;104561;-73
2020/12/05 05:39:48;;;;;;;25.43;16.03;;;;;;;6.60;68.53;99173.77;124663;1095;104602;-73
2020/12/05 05:42:29;;;;;;;20.15;13.35;;;;;;;6.60;68.64;99176.41;124643;1096;104647;-74
2020/12/05 05:45:16;;;;;;;21.15;13.60;;;;;;;6.62;67.84;99192.99;124705;1095;105024;-73
2020/12/05 05:47:45;;;;;;;23.23;14.70;;;;;;;6.63;67.85;99191.17;124613;1095;104586;-73
2020/12/05 05:50:22;;;;;;;21.57;15.23;;;;;;;6.62;67.49;99185.04;124600;1095;104974;-73
2020/12/05 05:52:55;;;;;;;22.30;14.93;;;;;;;6.63;67.56;99193.81;124627;1095;104589;-72
2020/12/05 05:55:40;;;;;;;17.87;11.87;;;;;;;6.62;67.62;99185.04;124614;1095;104595;-73
2020/12/05 05:58:09;;;;;;;18.70;13.20;;;;;;;6.63;68.38;99194.64;124615;1095;104487;-71
2020/12/05 06:00:40;;;;;;;18.73;11.70;;;;;;;6.65;68.47;99197.14;124623;1096;104484;-72
2020/12/05 06:03:21;;;;;;;18.40;12.25;;;;;;;6.65;67.68;99200.62;124673;1095;104519;-72
2020/12/05 06:05:51;;;;;;;21.73;15.43;;;;;;;6.65;68.23;99199.80;124626;1095;104515;-72
2020/12/05 06:08:22;;;;;;;19.53;12.93;;;;;;;6.64;68.50;99196.32;124541;1095;104522;-72
2020/12/05 06:11:00;;;;;;;19.65;13.10;;;;;;;6.64;67.16;99201.63;124381;1097;104625;-70
2020/12/05 06:13:30;;;;;;;16.70;11.70;;;;;;;6.65;67.35;99200.62;124562;1095;104656;-72
2020/12/05 06:15:59;;;;;;;19.73;13.83;;;;;;;6.65;68.26;99208.57;124524;1095;104593;-70
2020/12/05 06:18:29;;;;;;;20.37;13.57;;;;;;;6.67;68.18;99200.47;124524;1095;104509;-72
2020/12/05 06:20:57;;;;;;;18.63;12.63;;;;;;;6.68;67.92;99205.63;124510;1095;104523;-71
2020/12/05 06:23:37;;;;;;;20.70;12.97;;;;;;;6.71;67.98;99216.91;124515;1095;104644;-73
2020/12/05 06:26:09;;;;;;;19.27;11.93;;;;;;;6.73;68.25;99218.41;124614;1095;104598;-71
2020/12/05 06:28:40;;;;;;;18.50;12.20;;;;;;;6.75;67.02;99215.61;124525;1095;104490;-71
2020/12/05 06:31:08;;;;;;;18.62;11.83;;;;;;;6.76;67.20;99225.24;124494;1097;104516;-71
2020/12/05 06:33:42;;;;;;;18.87;13.13;;;;;;;6.78;68.02;99231.22;124616;1095;104523;-72
2020/12/05 06:36:41;;;;;;;20.10;12.57;;;;;;;6.79;68.11;99225.73;124530;1095;104512;-72
2020/12/05 06:39:20;;;;;;;18.07;11.77;;;;;;;6.79;68.02;99230.22;124504;1095;104547;-72
2020/12/05 06:41:50;;;;;;;17.40;11.03;;;;;;;6.78;68.01;99229.39;124589;1095;104525;-70
2020/12/05 06:44:20;;;;;;;19.00;12.40;;;;;;;6.81;68.17;99236.20;124564;1095;104666;-72
2020/12/05 06:46:53;;;;;;;17.87;11.67;;;;;;;6.82;67.96;99229.92;124523;1095;105007;-70
2020/12/05 06:49:47;;;;;;;16.97;11.70;;;;;;;6.84;68.39;99241.20;124724;1090;104653;-73
2020/12/05 06:52:40;;;;;;;73.47;49.43;;;;;;;6.85;66.92;99241.05;124623;1095;104602;-71
2020/12/05 06:55:14;;;;;;;333.43;200.77;;;;;;;6.86;67.37;99247.18;124645;1090;104669;-71
2020/12/05 06:57:43;;;;;;;513.93;332.43;;;;;;;6.88;67.64;99253.98;124623;1095;104606;-72
2020/12/05 07:00:17;;;;;;;921.03;622.83;;;;;;;6.91;68.48;99255.52;124491;1095;104506;-70
2020/12/05 07:02:54;;;;;;;661.23;438.70;;;;;;;6.94;67.83;99272.93;124589;1095;104483;-71
2020/12/05 07:05:36;;;;;;;587.13;429.93;;;;;;;6.96;67.17;99263.83;124534;1095;104659;-70
2020/12/05 07:08:26;;;;;;;272.13;182.07;;;;;;;6.97;67.86;99270.81;124633;1095;104599;-71
2020/12/05 07:10:57;;;;;;;229.33;166.37;;;;;;;6.97;67.96;99280.59;124541;1095;104535;-71
2020/12/05 07:13:28;;;;;;;120.87;86.63;;;;;;;6.98;67.04;99287.55;124637;1095;104516;-70
2020/12/05 07:16:18;;;;;;;103.67;77.80;;;;;;;7.01;67.19;99295.21;124708;1095;104759;-72
2020/12/05 07:18:48;;;;;;;123.65;94.40;;;;;;;7.03;67.26;99302.02;124547;1095;104618;-71
2020/12/05 07:21:17;;;;;;;71.67;50.03;;;;;;;7.04;68.01;99302.84;124499;1095;104929;-70
2020/12/05 07:23:46;;;;;;;80.03;59.40;;;;;;;7.07;66.86;99313.98;124466;1095;104577;-67
2020/12/05 07:26:15;;;;;;;39.60;26.37;;;;;;;7.08;68.01;99307.70;124490;1095;104791;-71
2020/12/05 07:28:47;;;;;;;36.73;26.57;;;;;;;7.08;67.26;99313.01;124601;1095;104602;-71
2020/12/05 07:31:16;;;;;;;50.33;36.57;;;;;;;7.08;66.60;99310.36;124504;1095;104522;-70
2020/12/05 07:33:46;;;;;;;38.10;26.67;;;;;;;7.10;67.58;99315.48;124518;1095;104597;-71
2020/12/05 07:36:16;;;;;;;81.00;59.80;;;;;;;7.12;67.17;99316.19;124569;1095;104516;-72
2020/12/05 07:38:46;;;;;;;51.67;35.30;;;;;;;7.15;67.23;99321.17;124553;1097;104670;-71
2020/12/05 07:41:16;;;;;;;34.80;23.17;;;;;;;7.16;67.80;99321.99;124501;1095;104592;-72
2020/12/05 07:43:46;;;;;;;36.90;23.23;;;;;;;7.15;67.54;99320.34;124650;1095;104580;-73
2020/12/05 07:46:16;;;;;;;58.67;39.77;;;;;;;7.14;67.25;99308.05;124643;1090;104669;-72
2020/12/05 07:48:44;;;;;;;45.17;31.97;;;;;;;7.15;67.12;99321.17;124732;1090;104699;-71
2020/12/05 07:51:15;;;;;;;41.53;29.07;;;;;;;7.16;66.46;99324.64;124480;1090;104499;-73
2020/12/05 07:53:44;;;;;;;45.90;32.43;;;;;;;7.17;66.86;99323.67;124805;1090;104605;-72
2020/12/05 07:56:17;;;;;;;58.47;39.33;;;;;;;7.20;67.40;99328.69;124774;1090;104519;-72
2020/12/05 07:58:50;;;;;;;34.70;20.00;;;;;;;7.21;67.91;99335.64;124675;1090;104583;-71
2020/12/05 08:01:38;;;;;;;31.47;17.63;;;;;;;7.23;66.99;99336.31;124547;1090;104516;-71
2020/12/05 08:04:29;;;;;;;25.60;14.60;;;;;;;7.21;66.22;99344.42;124566;1090;104570;-71
2020/12/05 08:07:03;;;;;;;29.17;17.13;;;;;;;7.22;67.49;99351.41;124838;1090;104944;-71
2020/12/05 08:09:34;;;;;;;29.43;19.37;;;;;;;7.23;66.67;99350.41;124717;1095;104944;-71
2020/12/05 08:12:05;;;;;;;29.20;20.48;;;;;;;7.26;66.42;99355.42;124596;1090;104528;-70
2020/12/05 08:14:35;;;;;;;22.97;14.83;;;;;;;7.30;66.20;99355.95;124530;1090;104621;-71
2020/12/05 08:17:05;;;;;;;21.43;15.43;;;;;;;7.32;66.45;99347.84;124526;1090;104490;-71
2020/12/05 08:19:34;;;;;;;25.23;16.67;;;;;;;7.34;66.43;99356.48;124573;1090;104599;-71
2020/12/05 08:22:08;;;;;;;25.30;18.10;;;;;;;7.34;66.67;99351.99;124760;1090;104523;-71
2020/12/05 08:24:38;;;;;;;22.67;15.40;;;;;;;7.34;66.57;99367.09;124558;1090;104603;-72
2020/12/05 08:27:07;;;;;;;22.23;13.67;;;;;;;7.37;65.96;99369.42;124566;1090;104596;-70
2020/12/05 08:29:36;;;;;;;24.93;15.83;;;;;;;7.37;66.22;99372.93;124409;1095;104589;-70
2020/12/05 08:32:05;;;;;;;25.87;16.67;;;;;;;7.37;67.00;99372.08;124416;1090;104986;-72
2020/12/05 08:34:33;;;;;;;21.17;13.90;;;;;;;7.35;66.02;99369.60;124442;1090;104512;-73
2020/12/05 08:37:03;;;;;;;22.50;14.10;;;;;;;7.34;67.05;99367.09;124543;1095;104560;-73
2020/12/05 08:39:39;;;;;;;18.57;11.67;;;;;;;7.32;66.81;99369.89;124637;1095;104545;-74
2020/12/05 08:42:07;;;;;;;19.17;11.10;;;;;;;7.27;66.49;99366.86;124669;1095;104621;-70
2020/12/05 08:44:36;;;;;;;16.67;10.60;;;;;;;7.27;66.28;99377.47;124599;1095;104580;-70
2020/12/05 08:47:07;;;;;;;18.55;10.90;;;;;;;7.25;66.38;99374.97;124652;1095;104647;-72
2020/12/05 08:49:40;;;;;;;18.20;10.60;;;;;;;7.25;66.00;99382.92;124634;1095;104516;-71
2020/12/05 08:52:09;;;;;;;19.80;12.10;;;;;;;7.28;66.75;99392.42;124650;1095;104992;-71
2020/12/05 08:54:45;;;;;;;18.00;12.20;;;;;;;7.31;66.70;99386.79;124579;1095;104522;-73
2020/12/05 08:57:15;;;;;;;20.07;12.60;;;;;;;7.35;66.77;99384.66;124631;1095;104665;-71
2020/12/05 08:59:44;;;;;;;17.67;11.57;;;;;;;7.38;66.29;99379.06;124493;1095;104585;-74
2020/12/05 09:02:14;;;;;;;17.30;11.50;;;;;;;7.43;67.05;99374.96;124602;1095;104532;-74
2020/12/05 09:04:43;;;;;;;19.87;12.03;;;;;;;7.48;66.34;99375.31;124595;1095;104589;-78
2020/12/05 09:07:14;;;;;;;19.03;12.53;;;;;;;7.51;65.67;99376.02;124687;1095;104660;-74
2020/12/05 09:09:44;;;;;;;20.73;12.73;;;;;;;7.56;66.90;99371.05;124691;1095;104680;-74
2020/12/05 09:12:14;;;;;;;20.13;13.10;;;;;;;7.54;65.86;99373.86;124663;1096;104609;-75
2020/12/05 09:14:47;;;;;;;21.40;13.37;;;;;;;7.56;66.56;99379.02;124603;1095;104490;-74
2020/12/05 09:17:25;;;;;;;19.10;12.60;;;;;;;7.56;65.78;99382.50;124575;1096;104691;-72
2020/12/05 09:20:09;;;;;;;19.37;12.53;;;;;;;7.58;66.69;99392.97;124665;1090;104619;-76
2020/12/05 09:22:37;;;;;;;20.53;13.00;;;;;;;7.60;66.87;99398.95;124955;1090;104511;-73
2020/12/05 09:25:06;;;;;;;21.43;14.03;;;;;;;7.64;66.52;99402.96;124664;1095;104589;-73
2020/12/05 09:27:40;;;;;;;19.37;12.50;;;;;;;7.69;66.11;99407.83;124704;1095;104610;-74
2020/12/05 09:30:11;;;;;;;19.10;11.80;;;;;;;7.75;66.31;99405.37;124667;1095;104570;-77
2020/12/05 09:32:41;;;;;;;19.33;11.13;;;;;;;7.76;66.97;99404.39;124772;1095;104528;-72
2020/12/05 09:35:11;;;;;;;19.85;12.80;;;;;;;7.80;66.21;99405.74;124728;1095;104862;-74
2020/12/05 09:37:39;;;;;;;17.57;11.00;;;;;;;7.84;66.61;99416.89;124762;1095;104669;-75
2020/12/05 09:40:10;;;;;;;21.70;13.17;;;;;;;7.85;65.85;99419.40;124682;1095;104610;-74
2020/12/05 09:42:39;;;;;;;18.82;10.93;;;;;;;7.88;65.99;99418.24;124649;1095;104493;-74
2020/12/05 09:45:09;;;;;;;18.53;11.63;;;;;;;7.92;66.17;99416.11;124688;1095;104504;-72
2020/12/05 09:47:37;;;;;;;20.67;13.27;;;;;;;7.96;66.23;99417.46;124747;1090;104695;-72
2020/12/05 09:50:06;;;;;;;25.03;13.97;;;;;;;8.01;66.38;99423.15;124701;1090;104490;-74
2020/12/05 09:52:35;;;;;;;21.03;13.13;;;;;;;8.07;65.88;99419.86;124610;1095;104484;-74
2020/12/05 09:55:05;;;;;;;22.03;14.17;;;;;;;8.12;65.95;99422.88;124728;1095;104596;-76
2020/12/05 09:57:34;;;;;;;68.10;44.40;;;;;;;8.17;65.77;99428.54;124676;1095;104711;-75
2020/12/05 10:00:02;;;;;;;479.80;331.45;;;;;;;8.23;65.67;99425.23;124609;1095;104600;-75
2020/12/05 10:02:32;;;;;;;183.45;106.25;;;;;;;8.29;66.24;99438.90;124598;1095;104519;-74
2020/12/05 10:05:01;;;;;;;94.50;56.63;;;;;;;8.35;66.44;99443.58;124582;1095;104506;-74
2020/12/05 10:07:29;;;;;;;105.50;73.67;;;;;;;8.40;65.32;99444.77;124690;1095;105067;-74
2020/12/05 10:09:58;;;;;;;79.77;53.03;;;;;;;8.46;66.00;99443.33;124670;1095;104740;-74
2020/12/05 10:12:26;;;;;;;39.00;25.37;;;;;;;8.52;66.15;99447.18;124634;1095;104526;-73
2020/12/05 10:14:54;;;;;;;75.80;54.63;;;;;;;8.60;66.01;99453.38;124607;1095;104522;-75
2020/12/05 10:17:22;;;;;;;91.37;62.23;;;;;;;8.69;65.55;99448.08;124647;1095;104646;-75
2020/12/05 10:19:50;;;;;;;73.60;45.83;;;;;;;8.77;65.61;99456.91;124633;1097;104613;-74
2020/12/05 10:22:19;;;;;;;52.47;34.10;;;;;;;8.84;65.54;99443.81;124660;1095;105006;-72
2020/12/05 10:24:47;;;;;;;43.17;30.17;;;;;;;8.91;65.71;99452.82;124643;1095;104508;-74
2020/12/05 10:27:16;;;;;;;147.20;102.00;;;;;;;8.96;65.70;99453.14;124653;1095;104627;-75
2020/12/05 10:29:44;;;;;;;161.57;111.17;;;;;;;8.97;65.73;99444.18;124599;1095;104592;-76
2020/12/05 10:32:12;;;;;;;103.07;69.10;;;;;;;8.97;65.23;99440.70;124580;1095;104587;-74
2020/12/05 10:34:40;;;;;;;69.90;46.97;;;;;;;8.93;65.28;99448.17;124631;1097;104627;-74
2020/12/05 10:37:09;;;;;;;144.17;99.23;;;;;;;8.91;65.63;99446.64;124722;1097;104660;-76
2020/12/05 10:39:37;;;;;;;240.47;157.37;;;;;;;8.91;65.37;99446.64;124623;1096;104499;-77
2020/12/05 10:42:05;;;;;;;244.97;159.33;;;;;;;8.91;65.77;99447.50;124621;1095;104596;-76
2020/12/05 10:44:34;;;;;;;495.20;367.20;;;;;;;8.94;65.72;99436.52;124614;1095;104717;-76
2020/12/05 10:47:03;;;;;;;370.55;244.70;;;;;;;8.97;65.34;99438.86;124664;1095;104621;-76
2020/12/05 10:49:31;;;;;;;209.13;130.23;;;;;;;9.00;65.69;99443.84;124651;1095;104595;-77
2020/12/05 10:51:59;;;;;;;94.40;54.90;;;;;;;9.02;65.51;99436.52;124595;1095;104593;-75
2020/12/05 10:54:27;;;;;;;215.03;140.53;;;;;;;9.06;65.34;99428.22;124636;1095;104509;-75
2020/12/05 10:56:57;;;;;;;243.33;169.93;;;;;;;9.09;65.53;99439.38;124624;1095;104672;-74
2020/12/05 10:59:25;;;;;;;330.00;239.33;;;;;;;9.13;65.35;99440.71;124624;1095;104583;-76
2020/12/05 11:01:55;;;;;;;76.30;46.67;;;;;;;9.15;65.11;99444.04;124741;1089;104606;-75
2020/12/05 11:04:23;;;;;;;67.20;40.53;;;;;;;9.21;65.82;99446.04;124708;1095;104519;-76
2020/12/05 11:06:52;;;;;;;58.53;35.70;;;;;;;9.25;65.27;99443.89;124689;1096;104695;-75
2020/12/05 11:09:20;;;;;;;672.33;466.13;;;;;;;9.31;65.52;99450.38;124659;1095;104591;-76
2020/12/05 11:11:48;;;;;;;784.90;553.50;;;;;;;9.37;65.74;99450.58;124592;1095;104539;-78
2020/12/05 11:14:17;;;;;;;481.67;320.97;;;;;;;9.44;65.40;99450.73;124620;1095;104500;-78
2020/12/05 11:16:45;;;;;;;182.20;104.27;;;;;;;9.50;65.30;99454.56;124707;1095;104613;-77
2020/12/05 11:19:13;;;;;;;289.93;193.30;;;;;;;9.53;65.53;99444.42;124635;1095;104557;-77
2020/12/05 11:21:45;;;;;;;129.20;87.45;;;;;;;9.56;65.61;99449.39;124611;1095;104493;-78